Time;durP1;ratioP1;P1;durP2;ratioP2;P2;SDS_P1;SDS_P2;PMS_P1;PMS_P2;Temp;Humidity;BMP_temperature;BMP_pressure;BME280_temperature;BME280_humidity;BME280_pressure;Samples;Min_cycle;Max_cycle;Signal;HPM_P1;HPM_P2
2024/01/09 00:02:03;;;;;;;69.47;39.03;;;22.20;27.30;;;;;;6220826;27;83989;-58
2024/01/09 00:05:03;;;;;;;69.18;39.33;;;22.20;27.60;;;;;;6220992;27;83067;-57
2024/01/09 00:08:04;;;;;;;68.00;38.95;;;22.10;27.60;;;;;;6223106;27;84140;-58
2024/01/09 00:11:04;;;;;;;75.30;39.40;;;22.10;27.60;;;;;;6221545;27;83550;-60
2024/01/09 00:14:05;;;;;;;68.38;40.25;;;22.10;27.70;;;;;;6221699;27;83448;-59
2024/01/09 00:17:05;;;;;;;66.38;39.20;;;22.10;27.70;;;;;;6221873;27;83122;-61
2024/01/09 00:20:05;;;;;;;68.13;38.15;;;22.00;27.80;;;;;;6224899;27;83217;-60
2024/01/09 00:23:06;;;;;;;61.67;36.95;;;22.00;28.10;;;;;;6223927;27;83013;-60
2024/01/09 00:26:06;;;;;;;60.72;35.25;;;21.90;27.90;;;;;;6223909;27;82939;-59
2024/01/09 00:29:07;;;;;;;62.78;36.45;;;21.90;28.30;;;;;;6224135;27;83066;-61
2024/01/09 00:32:08;;;;;;;63.78;36.47;;;21.90;28.20;;;;;;6223817;27;83493;-59
2024/01/09 00:35:08;;;;;;;62.70;36.03;;;21.90;28.30;;;;;;6217263;27;84292;-60
2024/01/09 00:38:10;;;;;;;56.92;33.97;;;21.90;28.40;;;;;;6218265;27;84238;-61
2024/01/09 00:41:10;;;;;;;59.50;34.70;;;21.80;28.60;;;;;;6217589;27;83103;-52
2024/01/09 00:44:10;;;;;;;55.97;33.47;;;21.80;28.70;;;;;;6210307;27;82949;-50
2024/01/09 00:47:11;;;;;;;55.67;32.95;;;21.80;28.60;;;;;;6219156;27;83291;-49
2024/01/09 00:50:11;;;;;;;59.35;34.05;;;21.80;28.80;;;;;;6222378;27;85081;-47
2024/01/09 00:53:13;;;;;;;53.60;32.30;;;21.80;28.80;;;;;;6222639;27;84576;-50
2024/01/09 00:56:14;;;;;;;53.13;32.13;;;21.80;29.10;;;;;;6223261;27;83314;-50
2024/01/09 00:59:14;;;;;;;56.30;32.53;;;21.70;28.80;;;;;;6202928;27;82908;-61
2024/01/09 01:02:15;;;;;;;51.28;31.42;;;21.80;29.00;;;;;;6199572;27;85136;-61
2024/01/09 01:05:15;;;;;;;52.53;31.10;;;21.70;28.80;;;;;;6200689;27;82789;-61
2024/01/09 01:08:16;;;;;;;53.78;31.35;;;21.70;29.00;;;;;;6204949;27;83373;-59
2024/01/09 01:11:16;;;;;;;52.33;29.92;;;21.70;29.20;;;;;;6221821;27;83800;-60
2024/01/09 01:14:17;;;;;;;52.28;29.92;;;21.70;29.30;;;;;;6201794;27;82914;-60
2024/01/09 01:17:17;;;;;;;47.63;28.70;;;21.60;29.30;;;;;;6199453;27;82850;-49
2024/01/09 01:20:18;;;;;;;50.15;28.88;;;21.60;29.40;;;;;;6223082;27;85621;-48
2024/01/09 01:23:18;;;;;;;48.28;27.58;;;21.70;29.40;;;;;;6222478;27;83163;-48
2024/01/09 01:26:19;;;;;;;51.75;28.48;;;21.60;29.40;;;;;;6220623;27;83774;-52
2024/01/09 01:29:19;;;;;;;48.05;28.20;;;21.60;29.60;;;;;;6221921;27;83051;-51
2024/01/09 01:32:20;;;;;;;48.65;27.65;;;21.70;29.50;;;;;;6204992;27;85345;-47
2024/01/09 01:35:20;;;;;;;51.50;27.60;;;21.60;29.40;;;;;;6212230;27;83236;-51
2024/01/09 01:38:21;;;;;;;50.03;27.10;;;21.60;29.50;;;;;;6203848;27;83682;-47
2024/01/09 01:41:21;;;;;;;44.85;26.52;;;21.60;29.50;;;;;;6199573;27;82800;-49
2024/01/09 01:44:22;;;;;;;45.40;26.58;;;21.60;29.50;;;;;;6223435;27;83482;-48
2024/01/09 01:47:22;;;;;;;49.00;26.35;;;21.50;29.40;;;;;;6198057;27;83217;-50
2024/01/09 01:50:23;;;;;;;45.63;24.50;;;21.50;29.50;;;;;;6197732;27;83215;-49
2024/01/09 01:53:23;;;;;;;45.92;25.40;;;21.50;29.50;;;;;;6204511;27;83992;-57
2024/01/09 01:56:24;;;;;;;42.08;24.48;;;21.50;29.60;;;;;;6199000;28;83345;-59
2024/01/09 01:59:24;;;;;;;43.40;23.77;;;21.50;29.70;;;;;;6199102;27;84577;-58
2024/01/09 02:02:25;;;;;;;45.10;24.40;;;21.50;29.60;;;;;;6198071;28;84421;-57
2024/01/09 02:05:25;;;;;;;37.40;23.85;;;21.50;29.60;;;;;;6198500;27;83105;-56
2024/01/09 02:08:28;;;;;;;45.50;23.67;;;21.50;29.70;;;;;;6212934;27;83468;-57
2024/01/09 02:11:28;;;;;;;43.55;23.83;;;21.50;29.70;;;;;;6220759;27;83416;-60
2024/01/09 02:14:29;;;;;;;43.05;24.98;;;21.40;29.60;;;;;;6221988;27;84428;-59
2024/01/09 02:17:29;;;;;;;39.80;22.90;;;21.40;29.70;;;;;;6208251;27;83195;-61
2024/01/09 02:20:30;;;;;;;41.17;23.92;;;21.40;29.80;;;;;;6208421;27;83829;-59
2024/01/09 02:23:30;;;;;;;39.53;23.67;;;21.40;29.70;;;;;;6208450;27;83728;-60
2024/01/09 02:26:31;;;;;;;44.20;23.90;;;21.40;29.70;;;;;;6197963;27;83399;-63
2024/01/09 02:29:32;;;;;;;40.67;22.45;;;21.40;29.80;;;;;;6198748;28;82969;-59
2024/01/09 02:32:32;;;;;;;41.30;23.38;;;21.40;30.00;;;;;;6207703;27;83550;-61
2024/01/09 02:35:32;;;;;;;37.60;22.52;;;21.40;29.80;;;;;;6193384;28;83446;-59
2024/01/09 02:38:33;;;;;;;42.95;23.67;;;21.40;29.80;;;;;;6197787;27;84087;-60
2024/01/09 02:41:33;;;;;;;40.10;23.58;;;21.40;29.90;;;;;;6193417;27;83182;-59
2024/01/09 02:44:34;;;;;;;41.20;23.83;;;21.40;29.80;;;;;;6206376;28;87781;-59
2024/01/09 02:47:34;;;;;;;43.47;23.50;;;21.40;29.70;;;;;;6195742;27;83840;-58
2024/01/09 02:50:35;;;;;;;45.63;23.65;;;21.30;29.70;;;;;;6196501;28;82886;-60
2024/01/09 02:53:35;;;;;;;42.80;22.42;;;21.40;29.80;;;;;;6204112;27;82840;-59
2024/01/09 02:56:39;;;;;;;39.38;22.80;;;21.40;29.70;;;;;;6198641;27;83254;-60
2024/01/09 02:59:39;;;;;;;38.92;22.23;;;21.30;29.70;;;;;;6204143;27;83118;-59
2024/01/09 03:02:40;;;;;;;40.53;22.08;;;21.30;29.60;;;;;;6207540;27;84145;-60
2024/01/09 03:05:40;;;;;;;38.47;22.23;;;21.30;29.60;;;;;;6213446;27;83181;-60
2024/01/09 03:08:41;;;;;;;38.42;23.02;;;21.30;29.70;;;;;;6210376;27;83563;-60
2024/01/09 03:11:41;;;;;;;43.25;23.40;;;21.30;29.60;;;;;;6206599;27;83590;-59
2024/01/09 03:14:42;;;;;;;43.10;22.63;;;21.30;29.60;;;;;;6207197;27;85861;-61
2024/01/09 03:17:42;;;;;;;43.38;22.63;;;21.30;29.60;;;;;;6219602;27;83946;-59
2024/01/09 03:20:43;;;;;;;42.00;22.33;;;21.30;29.60;;;;;;6226896;27;83408;-60
2024/01/09 03:23:43;;;;;;;35.35;20.13;;;21.30;30.00;;;;;;6228710;27;83249;-58
2024/01/09 03:26:44;;;;;;;36.70;19.58;;;21.30;30.90;;;;;;6223661;27;85078;-47
2024/01/09 03:29:44;;;;;;;35.38;19.17;;;21.20;31.00;;;;;;6204850;27;84080;-47
2024/01/09 03:32:45;;;;;;;34.58;19.30;;;21.30;31.10;;;;;;6204994;27;83899;-47
2024/01/09 03:35:45;;;;;;;34.05;19.88;;;21.20;30.70;;;;;;6209355;27;83841;-47
2024/01/09 03:38:45;;;;;;;33.50;18.70;;;21.20;30.80;;;;;;6205704;27;82930;-48
2024/01/09 03:41:46;;;;;;;33.03;18.98;;;21.20;30.70;;;;;;6204833;27;82901;-48
2024/01/09 03:44:48;;;;;;;33.08;19.67;;;21.20;30.70;;;;;;6205154;27;82626;-60
2024/01/09 03:47:48;;;;;;;34.08;18.38;;;21.20;30.70;;;;;;6220577;27;82902;-59
2024/01/09 03:50:49;;;;;;;36.15;19.75;;;21.20;30.70;;;;;;6227714;27;83360;-58
2024/01/09 03:53:49;;;;;;;32.58;18.30;;;21.20;31.20;;;;;;6227319;27;82894;-58
2024/01/09 03:56:50;;;;;;;32.80;20.15;;;21.20;30.90;;;;;;6236415;27;83502;-58
2024/01/09 03:59:50;;;;;;;38.22;20.20;;;21.20;30.50;;;;;;6225583;27;85127;-57
2024/01/09 04:02:50;;;;;;;37.00;20.88;;;21.30;30.00;;;;;;6217863;27;83129;-59
2024/01/09 04:05:51;;;;;;;45.17;24.15;;;21.30;30.00;;;;;;6214960;27;83363;-59
2024/01/09 04:08:51;;;;;;;39.08;23.08;;;21.40;30.20;;;;;;6214277;27;83983;-60
2024/01/09 04:11:52;;;;;;;43.90;24.40;;;21.40;30.10;;;;;;6219210;27;83335;-57
2024/01/09 04:14:52;;;;;;;43.35;22.77;;;21.40;29.70;;;;;;6202138;27;82982;-56
2024/01/09 04:17:53;;;;;;;42.65;24.02;;;21.50;29.70;;;;;;6203748;27;83301;-57
2024/01/09 04:20:53;;;;;;;46.70;26.00;;;21.50;29.30;;;;;;6223033;27;82809;-56
2024/01/09 04:23:54;;;;;;;47.92;25.42;;;21.50;28.70;;;;;;6222595;27;83825;-59
2024/01/09 04:26:55;;;;;;;49.38;26.02;;;21.60;29.40;;;;;;6216206;27;83706;-55
2024/01/09 04:29:55;;;;;;;47.80;25.20;;;21.60;28.90;;;;;;6217317;27;87790;-60
2024/01/09 04:32:55;;;;;;;45.97;25.95;;;21.60;29.00;;;;;;6223904;27;83246;-60
2024/01/09 04:35:56;;;;;;;61.30;28.75;;;21.70;28.90;;;;;;6223672;27;84055;-60
2024/01/09 04:38:56;;;;;;;49.67;27.27;;;21.70;28.70;;;;;;6224588;27;82732;-60
2024/01/09 04:41:57;;;;;;;53.22;27.08;;;21.70;28.30;;;;;;6209572;27;83490;-61
2024/01/09 04:44:57;;;;;;;52.55;28.90;;;21.70;28.30;;;;;;6203772;27;83159;-58
2024/01/09 04:47:58;;;;;;;51.63;27.77;;;21.80;28.00;;;;;;6202361;27;83145;-59
2024/01/09 04:50:58;;;;;;;47.50;26.95;;;21.80;27.90;;;;;;6222444;27;83228;-58
2024/01/09 04:53:59;;;;;;;51.28;27.98;;;21.80;28.30;;;;;;6223013;27;83559;-58
2024/01/09 04:56:59;;;;;;;54.38;28.33;;;21.80;27.70;;;;;;6221192;27;82835;-62
2024/01/09 05:00:00;;;;;;;52.05;28.55;;;21.80;27.30;;;;;;6210717;27;83763;-62
2024/01/09 05:03:00;;;;;;;53.92;29.17;;;21.90;27.60;;;;;;6197958;28;83526;-61
2024/01/09 05:06:01;;;;;;;53.78;29.27;;;21.90;27.20;;;;;;6204118;27;82987;-63
2024/01/09 05:09:01;;;;;;;45.67;26.15;;;22.00;27.90;;;;;;6203625;27;83122;-61
2024/01/09 05:12:02;;;;;;;55.30;27.75;;;22.00;27.70;;;;;;6220161;27;85696;-60
2024/01/09 05:15:02;;;;;;;45.20;27.02;;;22.00;27.90;;;;;;6223338;27;82753;-61
2024/01/09 05:18:03;;;;;;;46.75;26.10;;;22.00;27.60;;;;;;6210349;27;83305;-63
2024/01/09 05:21:03;;;;;;;50.88;26.75;;;22.00;28.00;;;;;;6214215;27;83844;-61
2024/01/09 05:24:04;;;;;;;45.50;26.67;;;22.10;27.80;;;;;;6208951;27;83607;-60
2024/01/09 05:27:04;;;;;;;53.05;28.40;;;22.10;27.90;;;;;;6214464;27;86295;-59
2024/01/09 05:30:05;;;;;;;49.20;25.52;;;22.10;27.90;;;;;;6211597;27;83343;-56
2024/01/09 05:33:05;;;;;;;49.38;27.05;;;22.10;29.00;;;;;;6216051;27;83872;-61
2024/01/09 05:36:06;;;;;;;47.33;24.73;;;22.20;28.40;;;;;;6213891;27;89064;-59
2024/01/09 05:39:06;;;;;;;46.78;25.55;;;22.30;28.50;;;;;;6215865;27;83177;-60
2024/01/09 05:42:07;;;;;;;44.50;25.67;;;22.30;28.50;;;;;;6199098;27;83786;-60
2024/01/09 05:45:07;;;;;;;49.42;27.50;;;22.30;28.30;;;;;;6210063;27;83965;-63
2024/01/09 05:48:08;;;;;;;59.80;28.73;;;22.30;28.20;;;;;;6207258;28;85463;-62
2024/01/09 05:51:09;;;;;;;49.30;28.17;;;22.30;28.10;;;;;;6202207;27;82881;-67
2024/01/09 05:54:09;;;;;;;53.40;27.95;;;22.30;28.00;;;;;;6209077;27;83112;-61
2024/01/09 05:57:10;;;;;;;56.70;29.38;;;22.40;27.80;;;;;;6212135;28;90565;-59
2024/01/09 06:00:10;;;;;;;54.85;28.55;;;22.30;27.70;;;;;;6200354;27;83270;-60
2024/01/09 06:03:11;;;;;;;56.08;29.92;;;22.40;27.90;;;;;;6214971;28;84297;-60
2024/01/09 06:06:11;;;;;;;51.47;29.05;;;22.30;28.50;;;;;;6218069;27;85232;-58
2024/01/09 06:09:12;;;;;;;54.13;29.27;;;22.30;29.00;;;;;;6218876;27;84109;-59
2024/01/09 06:12:13;;;;;;;54.10;30.30;;;22.30;28.50;;;;;;6203281;27;84553;-56
2024/01/09 06:15:13;;;;;;;59.75;32.70;;;22.20;28.60;;;;;;6205000;27;83001;-54
2024/01/09 06:18:14;;;;;;;54.28;30.25;;;22.20;28.20;;;;;;6198856;27;83319;-56
2024/01/09 06:21:14;;;;;;;52.15;29.92;;;22.20;28.50;;;;;;6214168;27;83442;-55
2024/01/09 06:24:15;;;;;;;56.17;31.27;;;22.20;28.30;;;;;;6208519;27;83499;-53
2024/01/09 06:27:15;;;;;;;57.80;30.80;;;22.10;27.90;;;;;;6222186;27;82827;-56
2024/01/09 06:30:16;;;;;;;54.00;30.15;;;22.10;27.80;;;;;;6221628;27;83319;-55
2024/01/09 06:33:16;;;;;;;55.33;30.40;;;22.10;27.80;;;;;;6220704;27;83142;-52
2024/01/09 06:36:17;;;;;;;55.67;30.67;;;22.00;27.70;;;;;;6220999;27;83588;-55
2024/01/09 06:39:18;;;;;;;56.40;32.08;;;22.00;27.70;;;;;;6222227;27;83582;-55
2024/01/09 06:42:19;;;;;;;51.35;30.25;;;22.00;27.50;;;;;;6208054;27;83394;-56
2024/01/09 06:45:19;;;;;;;52.15;30.30;;;22.00;27.60;;;;;;6222122;27;83177;-56
2024/01/09 06:48:19;;;;;;;55.90;29.88;;;22.00;27.60;;;;;;6220640;27;84145;-55
2024/01/09 06:51:20;;;;;;;54.65;30.08;;;22.00;27.50;;;;;;6220962;27;85557;-53
2024/01/09 06:54:20;;;;;;;52.90;29.60;;;22.00;27.50;;;;;;6221236;27;83575;-55
2024/01/09 06:57:21;;;;;;;52.28;30.10;;;22.00;27.20;;;;;;6221215;27;83362;-57
2024/01/09 07:00:21;;;;;;;53.08;30.52;;;22.00;27.30;;;;;;6207135;27;83046;-55
2024/01/09 07:03:22;;;;;;;56.03;32.08;;;22.00;27.40;;;;;;6198236;27;83616;-52
2024/01/09 07:06:22;;;;;;;53.65;31.38;;;22.00;27.30;;;;;;6206354;27;83888;-59
2024/01/09 07:09:23;;;;;;;57.05;31.92;;;22.00;27.10;;;;;;6221183;27;83603;-60
2024/01/09 07:12:24;;;;;;;56.15;31.02;;;21.90;26.70;;;;;;6217871;27;83213;-60
2024/01/09 07:15:24;;;;;;;57.35;31.20;;;22.00;26.50;;;;;;6213122;27;85697;-60
2024/01/09 07:18:27;;;;;;;53.53;30.95;;;21.90;26.70;;;;;;6211849;27;83158;-60
2024/01/09 07:21:27;;;;;;;55.20;31.83;;;21.90;26.40;;;;;;6207404;28;83042;-60
2024/01/09 07:24:28;;;;;;;56.47;32.38;;;21.90;26.70;;;;;;6221734;27;85372;-60
2024/01/09 07:27:28;;;;;;;51.67;31.00;;;21.90;26.60;;;;;;6220107;27;83315;-60
2024/01/09 07:30:29;;;;;;;59.47;34.10;;;21.90;26.70;;;;;;6219594;27;83458;-60
2024/01/09 07:33:29;;;;;;;62.22;32.55;;;21.90;26.60;;;;;;6220627;27;83800;-60
2024/01/09 07:36:30;;;;;;;61.00;33.75;;;21.90;26.50;;;;;;6220324;27;84204;-60
2024/01/09 07:39:30;;;;;;;53.17;31.73;;;21.90;26.60;;;;;;6216667;27;82901;-60
2024/01/09 07:42:31;;;;;;;55.42;32.30;;;21.90;26.40;;;;;;6195677;28;82813;-60
2024/01/09 07:45:31;;;;;;;56.50;32.85;;;21.90;26.40;;;;;;6210780;27;82998;-60
2024/01/09 07:48:32;;;;;;;56.92;34.53;;;21.90;26.50;;;;;;6201334;27;83613;-59
2024/01/09 07:51:32;;;;;;;56.95;33.58;;;21.90;26.20;;;;;;6200743;27;83549;-58
2024/01/09 07:54:33;;;;;;;57.40;33.25;;;21.90;26.30;;;;;;6200868;27;82835;-59
2024/01/09 07:57:33;;;;;;;55.05;32.22;;;21.90;26.40;;;;;;6200168;27;83598;-60
2024/01/09 08:00:34;;;;;;;53.20;31.60;;;21.90;26.30;;;;;;6199714;27;83936;-59
2024/01/09 08:03:34;;;;;;;60.35;33.97;;;21.90;26.30;;;;;;6213177;27;84210;-61
2024/01/09 08:06:35;;;;;;;55.58;32.58;;;21.90;26.20;;;;;;6225206;28;89097;-59
2024/01/09 08:09:35;;;;;;;55.28;31.08;;;21.90;26.20;;;;;;6218942;27;83396;-60
2024/01/09 08:12:36;;;;;;;51.92;29.35;;;21.80;26.40;;;;;;6216893;27;83178;-60
2024/01/09 08:15:38;;;;;;;54.38;32.10;;;21.80;26.20;;;;;;6223121;27;83282;-58
2024/01/09 08:18:38;;;;;;;53.80;31.67;;;21.90;26.10;;;;;;6222829;27;83267;-63
2024/01/09 08:21:40;;;;;;;49.72;28.55;;;21.80;26.20;;;;;;6223938;27;83340;-61
2024/01/09 08:24:40;;;;;;;47.13;26.98;;;21.90;26.30;;;;;;6224378;27;83910;-61
2024/01/09 08:27:41;;;;;;;41.10;26.10;;;21.90;26.40;;;;;;6225748;27;83370;-64
2024/01/09 08:30:41;;;;;;;45.65;26.38;;;21.90;26.10;;;;;;6223552;27;84030;-62
2024/01/09 08:33:42;;;;;;;49.08;28.42;;;21.90;26.30;;;;;;6224282;27;83622;-62
2024/01/09 08:36:43;;;;;;;47.80;27.50;;;21.90;26.00;;;;;;6223386;27;83188;-60
2024/01/09 08:39:43;;;;;;;44.53;25.25;;;21.90;26.30;;;;;;6219376;27;84822;-60
2024/01/09 08:42:44;;;;;;;40.28;25.48;;;21.90;26.20;;;;;;6207354;27;83425;-60
2024/01/09 08:45:46;;;;;;;42.67;25.25;;;21.90;26.30;;;;;;6199952;27;83021;-59
2024/01/09 08:48:46;;;;;;;41.50;24.75;;;21.90;26.20;;;;;;6199572;27;83085;-59
2024/01/09 08:51:47;;;;;;;37.42;23.58;;;22.00;26.20;;;;;;6199754;27;83456;-59
2024/01/09 08:54:47;;;;;;;44.20;26.45;;;22.00;26.40;;;;;;6206166;27;83146;-60
2024/01/09 08:57:49;;;;;;;43.75;24.55;;;22.00;26.10;;;;;;6223089;27;83085;-61
2024/01/09 09:00:49;;;;;;;40.25;23.08;;;22.00;26.30;;;;;;6205914;27;83046;-59
2024/01/09 09:03:50;;;;;;;42.47;24.85;;;22.10;26.20;;;;;;6197753;28;83305;-59
2024/01/09 09:06:50;;;;;;;42.05;25.40;;;22.00;26.00;;;;;;6199028;27;83266;-60
2024/01/09 09:09:51;;;;;;;41.63;25.00;;;22.10;26.10;;;;;;6199611;28;82955;-60
2024/01/09 09:12:51;;;;;;;41.90;26.20;;;22.10;26.00;;;;;;6208980;27;83732;-63
2024/01/09 09:15:51;;;;;;;44.65;25.70;;;22.10;26.10;;;;;;6214812;27;85819;-63
2024/01/09 09:18:52;;;;;;;39.83;24.52;;;22.20;26.40;;;;;;6205355;27;83814;-63
2024/01/09 09:21:53;;;;;;;43.70;25.92;;;22.20;26.70;;;;;;6223270;27;83262;-63
2024/01/09 09:24:53;;;;;;;42.88;25.48;;;22.30;26.60;;;;;;6219826;27;82850;-61
2024/01/09 09:27:54;;;;;;;43.75;26.25;;;22.40;26.30;;;;;;6199548;27;83137;-63
2024/01/09 09:30:55;;;;;;;42.17;25.75;;;22.40;26.20;;;;;;6223607;27;86044;-62
2024/01/09 09:33:55;;;;;;;41.38;24.92;;;22.50;26.20;;;;;;6222915;27;83133;-63
2024/01/09 09:36:56;;;;;;;44.85;25.73;;;22.60;26.20;;;;;;6223707;27;83406;-63
2024/01/09 09:39:56;;;;;;;41.67;25.25;;;22.60;26.20;;;;;;6201368;27;83391;-63
2024/01/09 09:42:58;;;;;;;42.55;25.70;;;22.70;26.10;;;;;;6211439;27;83609;-63
2024/01/09 09:45:58;;;;;;;34.83;23.38;;;22.80;26.00;;;;;;6198561;27;82976;-63
2024/01/09 09:48:59;;;;;;;41.60;25.23;;;22.90;25.80;;;;;;6198762;28;83309;-63
2024/01/09 09:51:59;;;;;;;41.88;25.73;;;23.00;25.70;;;;;;6198199;27;84638;-63
2024/01/09 09:55:00;;;;;;;39.38;24.13;;;23.10;26.10;;;;;;6198383;28;83526;-62
2024/01/09 09:58:00;;;;;;;38.65;25.02;;;23.10;26.00;;;;;;6198386;27;83579;-63
2024/01/09 10:01:01;;;;;;;41.05;25.38;;;23.20;26.00;;;;;;6202044;27;83796;-63
2024/01/09 10:04:02;;;;;;;42.38;25.05;;;23.30;25.90;;;;;;6198089;27;83181;-64
2024/01/09 10:07:02;;;;;;;39.38;23.98;;;23.40;26.50;;;;;;6198301;27;82983;-64
2024/01/09 10:10:03;;;;;;;42.40;26.45;;;23.40;26.00;;;;;;6198476;27;83738;-56
2024/01/09 10:13:03;;;;;;;40.15;26.15;;;23.50;26.00;;;;;;6198141;27;83068;-57
2024/01/09 10:16:04;;;;;;;39.75;26.48;;;23.60;26.50;;;;;;6199401;28;85084;-57
2024/01/09 10:19:04;;;;;;;41.83;26.75;;;23.60;25.90;;;;;;6206250;28;83475;-56
2024/01/09 10:22:05;;;;;;;45.95;27.95;;;23.70;26.00;;;;;;6221119;27;83553;-57
2024/01/09 10:25:05;;;;;;;42.65;27.13;;;23.70;25.90;;;;;;6221663;27;83110;-54
2024/01/09 10:28:08;;;;;;;44.92;26.38;;;23.70;25.90;;;;;;6221384;27;83191;-56
2024/01/09 10:31:09;;;;;;;43.92;26.98;;;23.80;25.80;;;;;;6220700;27;84851;-58
2024/01/09 10:34:09;;;;;;;45.80;27.65;;;23.80;25.80;;;;;;6222224;27;83163;-57
2024/01/09 10:37:10;;;;;;;48.55;27.27;;;23.90;25.80;;;;;;6210192;27;83827;-56
2024/01/09 10:40:10;;;;;;;44.42;28.92;;;24.00;25.80;;;;;;6197084;27;83787;-57
2024/01/09 10:43:12;;;;;;;45.22;27.30;;;24.00;25.70;;;;;;6214951;27;84465;-57
2024/01/09 10:46:12;;;;;;;45.28;28.58;;;24.10;25.70;;;;;;6221182;27;83325;-63
2024/01/09 10:49:13;;;;;;;43.15;27.75;;;24.10;25.70;;;;;;6220870;27;83881;-62
2024/01/09 10:52:14;;;;;;;44.28;27.58;;;24.30;25.70;;;;;;6220361;27;83078;-62
2024/01/09 10:55:14;;;;;;;41.50;25.88;;;24.30;25.60;;;;;;6221749;27;82830;-63
2024/01/09 10:58:14;;;;;;;39.95;26.17;;;24.40;25.50;;;;;;6217434;27;84135;-63
2024/01/09 11:01:15;;;;;;;39.88;26.23;;;24.40;25.50;;;;;;6214414;27;84303;-64
2024/01/09 11:04:16;;;;;;;42.97;26.38;;;24.50;25.60;;;;;;6221720;27;83449;-64
2024/01/09 11:07:16;;;;;;;40.58;25.80;;;24.50;25.50;;;;;;6220965;27;83109;-63
2024/01/09 11:10:17;;;;;;;41.95;27.08;;;24.50;25.60;;;;;;6220845;27;83224;-63
2024/01/09 11:13:18;;;;;;;36.40;24.13;;;24.60;25.60;;;;;;6221056;27;83331;-65
2024/01/09 11:16:18;;;;;;;40.42;25.20;;;24.60;25.60;;;;;;6221809;27;82946;-64
2024/01/09 11:19:19;;;;;;;38.10;24.05;;;24.60;25.60;;;;;;6210111;27;83617;-62
2024/01/09 11:22:19;;;;;;;35.17;23.50;;;24.60;25.60;;;;;;6211526;27;82974;-60
2024/01/09 11:25:20;;;;;;;38.15;23.48;;;24.70;25.60;;;;;;6205508;27;83783;-61
2024/01/09 11:28:20;;;;;;;35.47;22.52;;;24.70;26.20;;;;;;6200351;27;83466;-61
2024/01/09 11:31:21;;;;;;;35.97;23.08;;;24.80;25.70;;;;;;6215343;27;82947;-61
2024/01/09 11:34:21;;;;;;;36.47;23.17;;;24.80;25.60;;;;;;6201506;27;82963;-60
2024/01/09 11:37:21;;;;;;;35.00;22.20;;;24.80;25.60;;;;;;6201304;27;82933;-61
2024/01/09 11:40:22;;;;;;;41.08;24.17;;;24.90;25.60;;;;;;6214979;27;84119;-55
2024/01/09 11:43:22;;;;;;;33.38;21.77;;;24.90;25.60;;;;;;6220015;27;83068;-57
2024/01/09 11:46:23;;;;;;;33.90;22.65;;;24.90;25.50;;;;;;6224280;27;83501;-58
2024/01/09 11:49:24;;;;;;;38.15;24.42;;;25.00;25.60;;;;;;6224835;27;83136;-58
2024/01/09 11:52:24;;;;;;;36.75;23.08;;;25.10;25.80;;;;;;6223967;27;83017;-58
2024/01/09 11:55:25;;;;;;;35.78;22.70;;;25.10;25.60;;;;;;6215352;27;84331;-58
2024/01/09 11:58:25;;;;;;;35.40;22.50;;;25.20;25.70;;;;;;6217255;27;82751;-55
2024/01/09 12:01:26;;;;;;;31.10;20.33;;;25.20;25.70;;;;;;6225670;27;83671;-58
2024/01/09 12:04:27;;;;;;;34.33;22.08;;;25.30;25.60;;;;;;6203991;27;83207;-58
2024/01/09 12:07:27;;;;;;;35.30;22.90;;;25.30;25.60;;;;;;6199991;27;83107;-58
2024/01/09 12:10:28;;;;;;;35.25;22.90;;;25.30;25.70;;;;;;6199411;27;83539;-56
2024/01/09 12:13:28;;;;;;;36.13;22.30;;;25.40;25.60;;;;;;6202370;27;83985;-58
2024/01/09 12:16:29;;;;;;;33.50;21.65;;;25.40;25.60;;;;;;6210573;27;83334;-55
2024/01/09 12:19:30;;;;;;;34.55;21.48;;;25.50;25.60;;;;;;6211746;27;83713;-55
2024/01/09 12:22:31;;;;;;;33.20;20.35;;;25.50;25.50;;;;;;6224335;27;84088;-56
2024/01/09 12:25:32;;;;;;;30.98;21.13;;;25.50;25.60;;;;;;6224077;27;83665;-58
2024/01/09 12:28:33;;;;;;;34.78;21.80;;;25.50;25.50;;;;;;6222729;27;83040;-59
2024/01/09 12:31:33;;;;;;;32.10;20.98;;;25.60;25.50;;;;;;6222111;28;84308;-57
2024/01/09 12:34:35;;;;;;;31.52;21.30;;;25.60;25.50;;;;;;6222036;27;83141;-56
2024/01/09 12:37:35;;;;;;;32.97;20.90;;;25.60;25.50;;;;;;6222954;27;84002;-55
2024/01/09 12:40:36;;;;;;;31.45;20.77;;;25.60;25.70;;;;;;6213523;27;83284;-54
2024/01/09 12:43:37;;;;;;;32.10;20.88;;;25.60;25.70;;;;;;6199236;27;82962;-53
2024/01/09 12:46:38;;;;;;;32.53;21.42;;;25.70;25.60;;;;;;6198973;27;83252;-54
2024/01/09 12:49:38;;;;;;;35.35;21.63;;;25.70;25.70;;;;;;6202107;27;83540;-57
2024/01/09 12:52:39;;;;;;;35.38;21.77;;;25.80;25.70;;;;;;6199383;27;86830;-58
2024/01/09 12:55:39;;;;;;;33.88;21.50;;;25.80;25.50;;;;;;6199417;27;83984;-62
2024/01/09 12:58:40;;;;;;;30.52;19.80;;;25.90;25.40;;;;;;6200609;27;83946;-63
2024/01/09 13:01:40;;;;;;;35.20;22.08;;;26.00;25.40;;;;;;6210771;28;83411;-63
2024/01/09 13:04:41;;;;;;;30.25;20.85;;;26.10;25.60;;;;;;6202100;27;83506;-62
2024/01/09 13:07:41;;;;;;;33.70;21.73;;;26.10;25.90;;;;;;6199692;27;83430;-62
2024/01/09 13:10:42;;;;;;;31.90;19.98;;;26.20;25.50;;;;;;6204340;27;85141;-63
2024/01/09 13:13:44;;;;;;;30.88;20.50;;;26.30;25.60;;;;;;6206739;27;83651;-61
2024/01/09 13:16:45;;;;;;;35.53;21.77;;;26.30;25.30;;;;;;6198959;27;83959;-63
2024/01/09 13:19:45;;;;;;;34.83;22.60;;;26.30;25.30;;;;;;6211710;27;83654;-62
2024/01/09 13:22:46;;;;;;;36.75;23.08;;;26.30;25.10;;;;;;6200662;27;83036;-61
2024/01/09 13:25:46;;;;;;;35.90;21.70;;;26.30;25.20;;;;;;6198970;27;84485;-62
2024/01/09 13:28:47;;;;;;;35.35;22.02;;;26.30;25.30;;;;;;6198223;27;82955;-61
2024/01/09 13:31:47;;;;;;;34.65;22.38;;;26.20;25.40;;;;;;6208134;27;83112;-62
2024/01/09 13:34:47;;;;;;;34.97;22.15;;;26.10;25.30;;;;;;6197973;27;83138;-61
2024/01/09 13:37:48;;;;;;;34.15;22.20;;;26.00;25.30;;;;;;6199210;27;83021;-62
2024/01/09 13:40:49;;;;;;;40.78;22.52;;;25.90;26.00;;;;;;6198494;27;86087;-62
2024/01/09 13:43:49;;;;;;;37.45;24.23;;;25.80;25.30;;;;;;6208073;27;86047;-62
2024/01/09 13:46:51;;;;;;;39.58;25.02;;;25.70;25.60;;;;;;6213335;27;83090;-62
2024/01/09 13:49:52;;;;;;;38.60;23.17;;;25.50;25.50;;;;;;6215077;27;83612;-57
2024/01/09 13:52:52;;;;;;;39.40;24.55;;;25.40;25.90;;;;;;6222544;27;82880;-56
2024/01/09 13:55:53;;;;;;;36.17;22.15;;;25.30;25.70;;;;;;6206092;27;86524;-55
2024/01/09 13:58:54;;;;;;;35.38;21.88;;;25.10;25.70;;;;;;6198141;27;83057;-57
2024/01/09 14:01:54;;;;;;;39.67;23.55;;;25.00;25.70;;;;;;6199266;28;84347;-56
2024/01/09 14:04:55;;;;;;;39.60;24.95;;;24.90;25.70;;;;;;6198653;27;85310;-56
2024/01/09 14:07:55;;;;;;;39.28;24.13;;;24.80;25.90;;;;;;6199343;27;83251;-59
2024/01/09 14:10:56;;;;;;;38.72;23.05;;;24.80;26.00;;;;;;6198390;27;83672;-59
2024/01/09 14:13:57;;;;;;;37.30;22.92;;;24.70;26.10;;;;;;6201698;27;82967;-59
2024/01/09 14:16:57;;;;;;;38.13;23.38;;;24.60;26.10;;;;;;6206132;27;83081;-59
2024/01/09 14:19:58;;;;;;;37.78;22.67;;;24.50;26.00;;;;;;6216456;27;83166;-59
2024/01/09 14:22:59;;;;;;;36.38;22.55;;;24.40;26.10;;;;;;6221696;27;83480;-58
2024/01/09 14:25:59;;;;;;;34.40;21.98;;;24.40;26.00;;;;;;6209718;27;83318;-59
2024/01/09 14:29:00;;;;;;;35.90;22.02;;;24.20;26.20;;;;;;6220964;27;83532;-60
2024/01/09 14:32:00;;;;;;;37.60;22.08;;;24.10;26.00;;;;;;6220507;27;86014;-59
2024/01/09 14:35:01;;;;;;;32.90;22.02;;;24.00;26.10;;;;;;6221718;27;83281;-57
2024/01/09 14:38:01;;;;;;;35.97;22.13;;;23.90;26.20;;;;;;6221778;27;83174;-58
2024/01/09 14:41:02;;;;;;;39.20;21.27;;;23.80;26.20;;;;;;6206605;27;83500;-59
2024/01/09 14:44:03;;;;;;;38.90;23.40;;;23.70;26.10;;;;;;6211280;27;88249;-58
2024/01/09 14:47:03;;;;;;;33.85;20.95;;;23.60;26.20;;;;;;6219280;27;84137;-59
2024/01/09 14:50:04;;;;;;;37.22;22.55;;;23.50;26.70;;;;;;6217727;27;83574;-60
2024/01/09 14:53:05;;;;;;;36.72;22.30;;;23.50;26.30;;;;;;6218685;27;84637;-58
2024/01/09 14:56:06;;;;;;;38.03;22.42;;;23.40;26.40;;;;;;6218478;27;83466;-56
2024/01/09 14:59:06;;;;;;;39.72;23.95;;;23.30;26.40;;;;;;6220103;27;83745;-58
2024/01/09 15:02:07;;;;;;;39.88;24.00;;;23.30;26.50;;;;;;6212280;27;83432;-59
2024/01/09 15:05:07;;;;;;;38.40;23.33;;;23.20;26.30;;;;;;6201856;27;83191;-63
2024/01/09 15:08:08;;;;;;;40.55;24.02;;;23.20;26.40;;;;;;6204682;28;83370;-61
2024/01/09 15:11:08;;;;;;;42.55;23.15;;;23.20;26.40;;;;;;6208560;27;83259;-61
2024/01/09 15:14:10;;;;;;;39.15;24.45;;;23.10;26.50;;;;;;6214640;27;83151;-66
2024/01/09 15:17:11;;;;;;;46.63;23.80;;;23.20;26.60;;;;;;6217194;28;83676;-62